Gold Creek, Montana
Current Conditions -  °F | °C
As of 1:53 PM on Sunday 21 Dec 2014 (Local Time) from KHLN Reporting Station
Clear Clear  
Wind Chill: 31°   Ceiling: Unl
Heat Index: 43°   Visibility: 10mi
Dew Point: 27°   Wind: 38mph
Humidity: 53%   Direction: 260°W
Pressure: 29.53"   Gusts: 49mph
Location:  46.57°N, 112.96°W
Report Text: KHLN 212053Z 26033G43KT 10SM CLR 06/M03 A2953 RMK AO2 PK WND 25049/2025 PRESRR SLP029 60001 T00611028 55002
Loading
Personal Weather Stations






























Interactive Weather Map New forecast layout! Learn more

10-Day Weather Forecast

Advertisements
Track Severe Weather on mobile